Time;durP1;ratioP1;P1;durP2;ratioP2;P2;SDS_P1;SDS_P2;PMS_P1;PMS_P2;Temp;Humidity;BMP_temperature;BMP_pressure;BME280_temperature;BME280_humidity;BME280_pressure;Samples;Min_cycle;Max_cycle;Signal;HPM_P1;HPM_P2
2022/05/08 00:00:50;;;;;;;10.45;5.82;;;;;;;;;;5080530;28;20053;-83
2022/05/08 00:03:36;;;;;;;49.92;6.15;;;;;;;;;;5079969;28;20044;-81
2022/05/08 00:06:21;;;;;;;11.15;5.28;;;;;;;;;;5074224;28;20403;-83
2022/05/08 00:09:07;;;;;;;14.32;6.18;;;;;;;;;;5073777;28;20048;-82
2022/05/08 00:11:52;;;;;;;14.52;6.18;;;;;;;;;;5073918;28;20044;-85
2022/05/08 00:14:38;;;;;;;13.13;5.30;;;;;;;;;;5081071;28;20045;-84
2022/05/08 00:17:24;;;;;;;17.33;5.55;;;;;;;;;;5080013;28;20048;-86
2022/05/08 00:20:10;;;;;;;11.32;5.13;;;;;;;;;;5073693;28;20044;-85
2022/05/08 00:22:55;;;;;;;11.13;4.70;;;;;;;;;;5073768;28;20418;-83
2022/05/08 00:25:40;;;;;;;11.43;4.85;;;;;;;;;;5080234;28;20045;-84
2022/05/08 00:28:26;;;;;;;13.63;5.13;;;;;;;;;;5080540;28;20041;-84
2022/05/08 00:31:12;;;;;;;13.23;5.07;;;;;;;;;;5080562;28;20048;-86
2022/05/08 00:33:57;;;;;;;9.80;4.82;;;;;;;;;;5080963;28;20048;-82
2022/05/08 00:36:43;;;;;;;8.98;4.72;;;;;;;;;;5073519;28;20467;-81
2022/05/08 00:39:28;;;;;;;9.23;4.82;;;;;;;;;;5080753;28;20056;-83
2022/05/08 00:42:14;;;;;;;13.68;4.90;;;;;;;;;;5065638;28;20040;-82
2022/05/08 00:44:58;;;;;;;13.50;5.30;;;;;;;;;;5080023;28;20044;-84
2022/05/08 00:47:46;;;;;;;12.05;4.78;;;;;;;;;;5076735;28;20479;-84
2022/05/08 00:50:31;;;;;;;13.68;5.25;;;;;;;;;;5084635;28;20049;-84
2022/05/08 00:53:17;;;;;;;9.50;5.05;;;;;;;;;;5084427;28;20052;-82
2022/05/08 00:56:05;;;;;;;9.75;4.43;;;;;;;;;;5084691;28;20044;-84
2022/05/08 00:58:50;;;;;;;10.43;5.10;;;;;;;;;;5084073;28;20048;-83
2022/05/08 01:01:37;;;;;;;14.05;5.43;;;;;;;;;;5077489;28;20475;-85
2022/05/08 01:04:22;;;;;;;10.65;5.00;;;;;;;;;;5084334;28;20049;-85
2022/05/08 01:07:08;;;;;;;10.68;5.03;;;;;;;;;;5084909;28;20056;-83
2022/05/08 01:09:54;;;;;;;14.00;4.95;;;;;;;;;;5077611;28;20040;-84
2022/05/08 01:12:44;;;;;;;11.55;4.70;;;;;;;;;;5076955;28;20044;-82
2022/05/08 01:15:29;;;;;;;11.85;5.05;;;;;;;;;;5083977;28;20395;-84
2022/05/08 01:18:16;;;;;;;8.90;4.93;;;;;;;;;;5083880;28;20459;-84
2022/05/08 01:21:02;;;;;;;10.02;4.85;;;;;;;;;;5083554;28;20048;-83
2022/05/08 01:23:48;;;;;;;10.73;5.60;;;;;;;;;;5084037;28;20048;-82
2022/05/08 01:26:33;;;;;;;13.70;5.13;;;;;;;;;;5069972;28;20395;-83
2022/05/08 01:29:18;;;;;;;10.68;5.65;;;;;;;;;;5088917;28;20056;-82
2022/05/08 01:32:04;;;;;;;10.80;5.43;;;;;;;;;;5089872;28;20040;-82
2022/05/08 01:34:51;;;;;;;9.88;5.50;;;;;;;;;;5088195;28;20052;-83
2022/05/08 01:37:36;;;;;;;11.70;5.18;;;;;;;;;;5088860;28;20048;-82
2022/05/08 01:40:22;;;;;;;12.70;5.60;;;;;;;;;;5087974;28;20048;-82
2022/05/08 01:43:08;;;;;;;14.30;5.90;;;;;;;;;;5089021;28;20048;-83
2022/05/08 01:45:55;;;;;;;17.25;5.63;;;;;;;;;;5083436;28;20387;-83
2022/05/08 01:48:41;;;;;;;12.95;6.10;;;;;;;;;;5061680;28;20490;-84
2022/05/08 01:51:26;;;;;;;21.85;6.50;;;;;;;;;;5076697;28;20387;-83
2022/05/08 01:54:12;;;;;;;9.90;4.93;;;;;;;;;;5083823;28;20048;-83
2022/05/08 01:56:58;;;;;;;13.32;6.65;;;;;;;;;;5076909;28;20044;-85
2022/05/08 01:59:43;;;;;;;12.57;5.20;;;;;;;;;;5083627;28;20052;-84
2022/05/08 02:02:28;;;;;;;12.20;5.70;;;;;;;;;;5076880;28;20052;-83
2022/05/08 02:05:15;;;;;;;12.32;5.60;;;;;;;;;;5076569;28;20044;-84
2022/05/08 02:08:01;;;;;;;11.00;5.15;;;;;;;;;;5077342;28;20041;-83
2022/05/08 02:10:47;;;;;;;11.80;5.25;;;;;;;;;;5084293;28;20048;-84
2022/05/08 02:13:32;;;;;;;10.38;5.38;;;;;;;;;;5078055;28;20048;-85
2022/05/08 02:16:18;;;;;;;13.90;5.25;;;;;;;;;;5078054;28;20044;-84
2022/05/08 02:19:03;;;;;;;12.10;5.00;;;;;;;;;;5078575;28;20041;-82
2022/05/08 02:21:48;;;;;;;13.95;5.25;;;;;;;;;;5083149;28;20048;-83
2022/05/08 02:24:32;;;;;;;9.48;4.80;;;;;;;;;;5082554;28;20040;-83
2022/05/08 02:27:18;;;;;;;12.05;4.95;;;;;;;;;;5082520;28;20052;-84
2022/05/08 02:30:09;;;;;;;14.50;7.65;;;;;;;;;;5082337;28;20044;-83
2022/05/08 02:32:55;;;;;;;14.15;6.10;;;;;;;;;;5082825;28;20044;-83
2022/05/08 02:35:40;;;;;;;12.82;5.80;;;;;;;;;;5082313;28;20040;-85
2022/05/08 02:38:26;;;;;;;10.60;4.72;;;;;;;;;;5082691;28;20048;-84
2022/05/08 02:41:11;;;;;;;11.25;4.75;;;;;;;;;;5082598;28;20048;-82
2022/05/08 02:43:57;;;;;;;8.38;4.80;;;;;;;;;;5082285;28;20395;-84
2022/05/08 02:46:42;;;;;;;9.68;4.95;;;;;;;;;;5082630;28;20040;-83
2022/05/08 02:49:28;;;;;;;26.60;10.27;;;;;;;;;;5067825;28;20053;-84
2022/05/08 02:52:12;;;;;;;57.03;25.23;;;;;;;;;;5082553;28;20395;-83
2022/05/08 02:58:32;;;;;;;21.67;11.90;;;;;;;;;;5082465;28;20044;-83
2022/05/08 03:01:07;;;;;;;6.47;4.95;;;;;;;;;;5075559;28;20049;-83
2022/05/08 03:03:53;;;;;;;15.70;5.60;;;;;;;;;;5081568;28;20041;-82
2022/05/08 03:06:38;;;;;;;14.23;5.65;;;;;;;;;;5074965;28;20041;-85
2022/05/08 03:09:24;;;;;;;14.38;8.43;;;;;;;;;;5081267;28;20053;-82
2022/05/08 03:12:09;;;;;;;32.50;21.40;;;;;;;;;;5080279;28;20048;-85
2022/05/08 03:14:55;;;;;;;24.27;14.75;;;;;;;;;;5081866;28;20479;-84
2022/05/08 03:17:40;;;;;;;13.38;6.15;;;;;;;;;;5074924;28;20045;-84
2022/05/08 03:20:25;;;;;;;13.23;6.20;;;;;;;;;;5081892;28;20056;-83
2022/05/08 03:23:11;;;;;;;12.30;6.32;;;;;;;;;;5081927;28;20040;-83
2022/05/08 03:25:56;;;;;;;10.55;5.43;;;;;;;;;;5081663;28;20048;-84
2022/05/08 03:28:42;;;;;;;13.55;5.38;;;;;;;;;;5075280;28;20041;-83
2022/05/08 03:31:27;;;;;;;12.07;5.78;;;;;;;;;;5075129;28;20044;-84
2022/05/08 03:34:13;;;;;;;11.35;6.25;;;;;;;;;;5074809;28;20403;-83
2022/05/08 03:36:58;;;;;;;10.85;5.45;;;;;;;;;;5081509;28;20040;-85
2022/05/08 03:39:43;;;;;;;12.27;6.10;;;;;;;;;;5081367;28;20052;-84
2022/05/08 03:42:29;;;;;;;14.23;5.82;;;;;;;;;;5081841;28;20053;-82
2022/05/08 03:45:14;;;;;;;12.60;5.47;;;;;;;;;;5081739;28;20040;-82
2022/05/08 03:47:59;;;;;;;18.65;6.68;;;;;;;;;;5080967;28;20060;-84
2022/05/08 03:50:45;;;;;;;11.35;5.78;;;;;;;;;;5075134;28;20048;-84
2022/05/08 03:53:30;;;;;;;12.93;6.78;;;;;;;;;;5081379;28;20044;-82
2022/05/08 03:56:16;;;;;;;13.02;6.00;;;;;;;;;;5081636;28;20045;-83
2022/05/08 03:59:01;;;;;;;10.30;5.85;;;;;;;;;;5081115;28;20459;-83
2022/05/08 04:01:47;;;;;;;14.57;5.82;;;;;;;;;;5080743;28;20044;-82
2022/05/08 04:04:32;;;;;;;14.40;5.97;;;;;;;;;;5074529;28;20041;-82
2022/05/08 04:07:18;;;;;;;13.82;5.97;;;;;;;;;;5080185;28;20044;-84
2022/05/08 04:10:08;;;;;;;10.50;5.60;;;;;;;;;;5080816;28;20048;-85
2022/05/08 04:12:54;;;;;;;10.05;5.65;;;;;;;;;;5074371;28;20056;-83
2022/05/08 04:18:44;;;;;;;12.30;4.75;;;;;;;;;;5081076;28;20048;-84
2022/05/08 04:21:29;;;;;;;9.30;5.53;;;;;;;;;;5083265;28;20479;-84
2022/05/08 04:24:17;;;;;;;12.65;5.88;;;;;;;;;;5084779;28;20044;-83
2022/05/08 04:27:02;;;;;;;11.38;6.20;;;;;;;;;;5084731;28;20040;-85
2022/05/08 04:29:47;;;;;;;10.93;6.03;;;;;;;;;;5069154;28;20040;-84
2022/05/08 04:32:32;;;;;;;10.80;5.38;;;;;;;;;;5084539;28;20045;-84
2022/05/08 04:35:18;;;;;;;11.07;5.03;;;;;;;;;;5083929;28;20052;-83
2022/05/08 04:38:03;;;;;;;14.98;5.43;;;;;;;;;;5084280;28;20040;-82
2022/05/08 04:40:51;;;;;;;11.55;5.93;;;;;;;;;;5084552;28;20049;-84
2022/05/08 04:43:37;;;;;;;12.73;5.10;;;;;;;;;;5084105;28;20048;-83
2022/05/08 04:46:22;;;;;;;12.80;5.90;;;;;;;;;;5084528;28;20044;-83
2022/05/08 04:49:10;;;;;;;8.55;4.88;;;;;;;;;;5083804;28;20391;-85
2022/05/08 04:51:56;;;;;;;13.70;6.88;;;;;;;;;;5077363;28;20040;-84
2022/05/08 04:54:41;;;;;;;11.98;6.50;;;;;;;;;;5084395;28;20049;-82
2022/05/08 04:57:27;;;;;;;12.90;5.97;;;;;;;;;;5083688;28;20044;-84
2022/05/08 05:00:13;;;;;;;12.73;5.85;;;;;;;;;;5084184;28;20044;-82
2022/05/08 05:02:58;;;;;;;17.58;6.60;;;;;;;;;;5083760;28;20052;-85
2022/05/08 05:05:44;;;;;;;17.13;6.00;;;;;;;;;;5076994;28;20040;-82
2022/05/08 05:08:29;;;;;;;16.77;5.50;;;;;;;;;;5085747;28;20546;-84
2022/05/08 05:11:14;;;;;;;11.27;5.13;;;;;;;;;;5085245;28;20045;-85
2022/05/08 05:13:59;;;;;;;16.40;6.53;;;;;;;;;;5077567;28;20052;-85
2022/05/08 05:16:46;;;;;;;11.63;5.47;;;;;;;;;;5083651;28;20044;-83
2022/05/08 05:19:31;;;;;;;11.55;5.57;;;;;;;;;;5076766;28;20041;-82
2022/05/08 05:22:23;;;;;;;14.55;5.35;;;;;;;;;;5083460;28;20045;-85
2022/05/08 05:25:09;;;;;;;12.68;5.38;;;;;;;;;;5082712;28;20052;-84
2022/05/08 05:27:55;;;;;;;13.43;5.80;;;;;;;;;;5076662;28;20391;-84
2022/05/08 05:30:40;;;;;;;10.32;5.40;;;;;;;;;;5082825;28;20052;-83
2022/05/08 05:33:25;;;;;;;12.95;4.25;;;;;;;;;;5075832;28;20044;-85
2022/05/08 05:36:11;;;;;;;9.63;3.55;;;;;;;;;;5083009;28;20052;-85
2022/05/08 05:38:55;;;;;;;6.18;3.20;;;;;;;;;;5076193;28;20391;-86
2022/05/08 05:41:41;;;;;;;5.50;2.95;;;;;;;;;;5083468;28;20479;-83
2022/05/08 05:44:26;;;;;;;4.15;2.90;;;;;;;;;;5076184;28;20403;-84
2022/05/08 05:50:17;;;;;;;8.35;3.92;;;;;;;;;;5082924;28;20044;-85
2022/05/08 05:53:02;;;;;;;5.18;2.95;;;;;;;;;;5075914;28;20044;-83
2022/05/08 05:55:48;;;;;;;6.55;3.10;;;;;;;;;;5083008;28;20044;-83
2022/05/08 05:58:33;;;;;;;3.60;2.50;;;;;;;;;;5083449;28;20048;-83
2022/05/08 06:01:19;;;;;;;6.88;3.17;;;;;;;;;;5076035;28;20036;-83
2022/05/08 06:04:05;;;;;;;6.65;3.28;;;;;;;;;;5082834;28;20040;-83
2022/05/08 06:06:51;;;;;;;5.57;3.30;;;;;;;;;;5060659;28;20044;-83
2022/05/08 06:09:35;;;;;;;7.43;3.30;;;;;;;;;;5076269;28;20041;-83
2022/05/08 06:12:20;;;;;;;7.05;3.67;;;;;;;;;;5080789;28;20052;-84
2022/05/08 06:15:08;;;;;;;7.75;3.40;;;;;;;;;;5068045;28;20052;-83
2022/05/08 06:17:55;;;;;;;7.35;3.00;;;;;;;;;;5082093;28;20045;-84
2022/05/08 06:20:40;;;;;;;4.63;2.80;;;;;;;;;;5082916;28;20052;-84
2022/05/08 06:23:26;;;;;;;5.00;2.92;;;;;;;;;;5082586;28;20044;-83
2022/05/08 06:26:15;;;;;;;4.43;2.97;;;;;;;;;;5067512;28;20037;-83
2022/05/08 06:29:01;;;;;;;4.93;3.05;;;;;;;;;;5075671;28;20044;-84
2022/05/08 06:31:48;;;;;;;8.02;3.83;;;;;;;;;;5082412;28;20056;-84
2022/05/08 06:34:33;;;;;;;9.23;3.30;;;;;;;;;;5081710;28;20052;-83
2022/05/08 06:37:18;;;;;;;7.35;3.53;;;;;;;;;;5082160;28;20048;-83
2022/05/08 06:40:05;;;;;;;7.05;3.97;;;;;;;;;;5075136;28;20044;-84
2022/05/08 06:42:50;;;;;;;6.80;3.20;;;;;;;;;;5081685;28;20052;-83
2022/05/08 06:45:35;;;;;;;9.75;3.30;;;;;;;;;;5081772;28;20048;-84
2022/05/08 06:48:22;;;;;;;5.75;3.60;;;;;;;;;;5081745;28;20391;-85
2022/05/08 06:51:07;;;;;;;6.13;3.42;;;;;;;;;;5082126;28;20040;-85
2022/05/08 06:53:52;;;;;;;7.95;3.67;;;;;;;;;;5082095;28;20052;-83
2022/05/08 06:56:41;;;;;;;5.97;3.40;;;;;;;;;;5081595;28;20491;-83
2022/05/08 07:02:31;;;;;;;7.10;3.90;;;;;;;;;;5081823;28;20048;-84
2022/05/08 07:05:18;;;;;;;8.02;3.30;;;;;;;;;;5081397;28;20407;-84
2022/05/08 07:08:03;;;;;;;4.85;3.53;;;;;;;;;;5052447;28;20487;-85
2022/05/08 07:10:49;;;;;;;10.63;3.63;;;;;;;;;;5081116;28;20499;-83
2022/05/08 07:13:35;;;;;;;6.55;3.25;;;;;;;;;;5074911;28;20057;-83
2022/05/08 07:16:21;;;;;;;8.05;3.90;;;;;;;;;;5089796;28;20052;-82
2022/05/08 07:19:06;;;;;;;13.88;6.47;;;;;;;;;;5074771;28;20036;-83
2022/05/08 07:21:52;;;;;;;11.70;4.05;;;;;;;;;;5085691;28;20049;-83
2022/05/08 07:24:41;;;;;;;6.78;3.17;;;;;;;;;;5084578;28;20049;-83
2022/05/08 07:27:26;;;;;;;11.85;4.13;;;;;;;;;;5081275;28;20048;-84
2022/05/08 07:30:11;;;;;;;5.88;3.70;;;;;;;;;;5074531;28;20052;-84
2022/05/08 07:33:00;;;;;;;9.02;3.78;;;;;;;;;;5081533;28;20052;-84
2022/05/08 07:38:50;;;;;;;10.70;4.13;;;;;;;;;;5080871;28;20052;-83
2022/05/08 07:41:35;;;;;;;6.70;3.72;;;;;;;;;;5081094;28;20041;-82
2022/05/08 07:44:20;;;;;;;5.15;3.25;;;;;;;;;;5080573;28;20056;-83
2022/05/08 07:47:05;;;;;;;7.13;3.80;;;;;;;;;;5081006;28;20053;-83
2022/05/08 07:49:51;;;;;;;8.77;3.30;;;;;;;;;;5081583;28;20045;-83
2022/05/08 07:52:39;;;;;;;4.78;2.88;;;;;;;;;;5080651;28;20040;-83
2022/05/08 07:55:25;;;;;;;8.30;3.15;;;;;;;;;;5080473;28;20048;-83
2022/05/08 07:58:11;;;;;;;9.02;3.15;;;;;;;;;;5080088;28;20418;-82
2022/05/08 08:00:57;;;;;;;8.35;3.92;;;;;;;;;;5080957;28;20471;-85
2022/05/08 08:03:43;;;;;;;9.77;4.20;;;;;;;;;;5081271;28;20048;-83
2022/05/08 08:06:28;;;;;;;6.45;2.85;;;;;;;;;;5080522;28;20037;-83
2022/05/08 08:09:14;;;;;;;5.65;3.67;;;;;;;;;;5081270;28;20053;-83
2022/05/08 08:11:59;;;;;;;10.05;3.83;;;;;;;;;;5079385;28;20222;-85
2022/05/08 08:14:45;;;;;;;7.32;4.00;;;;;;;;;;5073873;28;20049;-86
2022/05/08 08:17:30;;;;;;;11.55;4.10;;;;;;;;;;5080152;28;20494;-85
2022/05/08 08:20:16;;;;;;;9.88;4.10;;;;;;;;;;5073250;28;20395;-85
2022/05/08 08:23:02;;;;;;;5.97;3.35;;;;;;;;;;5073390;28;20375;-85
2022/05/08 08:25:47;;;;;;;7.53;4.00;;;;;;;;;;5073110;28;20037;-85
2022/05/08 08:28:33;;;;;;;6.80;3.80;;;;;;;;;;5080404;28;20056;-85
2022/05/08 08:31:18;;;;;;;9.48;3.40;;;;;;;;;;5080952;28;20048;-84
2022/05/08 08:34:03;;;;;;;6.03;3.20;;;;;;;;;;5073246;28;20037;-86
2022/05/08 08:36:49;;;;;;;6.70;3.28;;;;;;;;;;5081518;28;20379;-85
2022/05/08 08:39:34;;;;;;;6.45;3.55;;;;;;;;;;5064716;28;20056;-83
2022/05/08 08:42:29;;;;;;;8.45;3.33;;;;;;;;;;5058243;28;20451;-84
2022/05/08 08:48:30;;;;;;;9.23;3.70;;;;;;;;;;5079718;28;20048;-84
2022/05/08 08:51:16;;;;;;;6.32;3.08;;;;;;;;;;5079969;28;20044;-87
2022/05/08 08:54:03;;;;;;;6.43;2.35;;;;;;;;;;5073188;28;20395;-83
2022/05/08 08:56:49;;;;;;;5.57;3.00;;;;;;;;;;5071826;28;20040;-83
2022/05/08 08:59:35;;;;;;;12.68;2.95;;;;;;;;;;5080091;28;20048;-83
2022/05/08 09:02:21;;;;;;;7.03;3.05;;;;;;;;;;5073035;28;20049;-86
2022/05/08 09:05:09;;;;;;;5.47;3.42;;;;;;;;;;5079853;28;20048;-83
2022/05/08 09:07:54;;;;;;;8.25;2.50;;;;;;;;;;5081166;28;20458;-83
2022/05/08 09:10:44;;;;;;;3.17;2.25;;;;;;;;;;5083477;28;20510;-84
2022/05/08 09:13:31;;;;;;;5.28;3.45;;;;;;;;;;5078055;28;20048;-83
2022/05/08 09:16:17;;;;;;;9.07;2.90;;;;;;;;;;5083480;28;20045;-85
2022/05/08 09:19:04;;;;;;;7.80;2.80;;;;;;;;;;5076793;28;20045;-85
2022/05/08 09:22:12;;;;;;;5.68;3.10;;;;;;;;;;5062621;28;20049;-86
2022/05/08 09:25:12;;;;;;;6.60;2.92;;;;;;;;;;5062208;28;20399;-87
2022/05/08 09:28:08;;;;;;;6.32;2.85;;;;;;;;;;5068837;28;20448;-85
2022/05/08 09:31:03;;;;;;;5.85;3.25;;;;;;;;;;5068094;28;20041;-86
2022/05/08 09:33:51;;;;;;;8.55;3.30;;;;;;;;;;5069509;28;20041;-86
2022/05/08 09:36:36;;;;;;;8.25;1.75;;;;;;;;;;5067724;28;20048;-84
2022/05/08 09:39:48;;;;;;;3.95;2.53;;;;;;;;;;5067714;28;20048;-86
2022/05/08 09:42:36;;;;;;;7.05;2.90;;;;;;;;;;5061150;28;20044;-88
2022/05/08 09:45:21;;;;;;;3.95;2.70;;;;;;;;;;5082322;28;20044;-86
2022/05/08 09:48:18;;;;;;;5.85;2.80;;;;;;;;;;5067652;28;20060;-86
2022/05/08 09:51:25;;;;;;;3.20;2.17;;;;;;;;;;5075840;28;20044;-84
2022/05/08 09:54:23;;;;;;;7.72;2.25;;;;;;;;;;5060797;28;20040;-85
2022/05/08 09:57:09;;;;;;;4.50;2.33;;;;;;;;;;5075642;28;20049;-85
2022/05/08 10:00:00;;;;;;;8.43;2.95;;;;;;;;;;5068044;28;20467;-85
2022/05/08 10:03:06;;;;;;;6.43;2.92;;;;;;;;;;5062136;28;20040;-87
2022/05/08 10:06:14;;;;;;;5.45;3.03;;;;;;;;;;5066959;28;20431;-89
2022/05/08 10:16:01;;;;;;;6.72;2.58;;;;;;;;;;5075410;28;20503;-88
2022/05/08 10:18:50;;;;;;;7.90;2.80;;;;;;;;;;5075462;28;20479;-86
2022/05/08 10:24:51;;;;;;;5.35;2.45;;;;;;;;;;5075229;28;20044;-86
2022/05/08 10:27:40;;;;;;;5.40;2.83;;;;;;;;;;5075561;28;20052;-87
2022/05/08 10:30:26;;;;;;;9.75;3.20;;;;;;;;;;5060608;28;20049;-84
2022/05/08 10:33:11;;;;;;;10.00;2.60;;;;;;;;;;5075065;28;20048;-85
2022/05/08 10:36:07;;;;;;;4.53;2.67;;;;;;;;;;5075532;28;20040;-83
2022/05/08 10:39:33;;;;;;;7.30;2.63;;;;;;;;;;5075160;28;20041;-87
2022/05/08 10:42:22;;;;;;;9.48;3.22;;;;;;;;;;5075673;28;20040;-87
2022/05/08 10:45:36;;;;;;;7.38;3.00;;;;;;;;;;5060280;28;20097;-85
2022/05/08 10:48:26;;;;;;;6.55;3.08;;;;;;;;;;5074929;28;20482;-85
2022/05/08 10:51:17;;;;;;;5.13;2.75;;;;;;;;;;5081439;28;20049;-84
2022/05/08 10:54:10;;;;;;;7.00;3.15;;;;;;;;;;5081341;28;20048;-85
2022/05/08 10:56:57;;;;;;;5.75;2.97;;;;;;;;;;5060729;28;20028;-85
2022/05/08 10:59:44;;;;;;;7.35;2.97;;;;;;;;;;5081426;28;20044;-85
2022/05/08 11:02:51;;;;;;;11.05;3.05;;;;;;;;;;5081361;28;20048;-87
2022/05/08 11:05:38;;;;;;;5.65;3.22;;;;;;;;;;5059759;28;20036;-84
2022/05/08 11:08:27;;;;;;;9.65;2.90;;;;;;;;;;5074570;28;20048;-86
2022/05/08 11:11:15;;;;;;;5.35;2.88;;;;;;;;;;5074699;28;20041;-85
2022/05/08 11:14:01;;;;;;;7.55;3.58;;;;;;;;;;5058898;28;20032;-85
2022/05/08 11:16:46;;;;;;;3.47;2.55;;;;;;;;;;5074782;28;20036;-88
2022/05/08 11:19:51;;;;;;;8.13;3.53;;;;;;;;;;5059825;28;20048;-87
2022/05/08 11:22:37;;;;;;;8.05;2.83;;;;;;;;;;5074229;28;20052;-86
2022/05/08 11:25:22;;;;;;;8.05;3.08;;;;;;;;;;5074602;28;20040;-85
2022/05/08 11:28:15;;;;;;;5.13;3.03;;;;;;;;;;5074049;28;20056;-84
2022/05/08 11:31:15;;;;;;;5.65;2.65;;;;;;;;;;5065534;28;20044;-86
2022/05/08 11:37:04;;;;;;;5.90;2.95;;;;;;;;;;5077218;28;20041;-85
2022/05/08 11:39:53;;;;;;;5.10;2.83;;;;;;;;;;5082341;28;20040;-86
2022/05/08 11:42:38;;;;;;;6.65;3.00;;;;;;;;;;5051727;28;20052;-84
2022/05/08 11:45:23;;;;;;;9.88;2.72;;;;;;;;;;5073799;28;20044;-84
2022/05/08 11:48:09;;;;;;;6.80;2.88;;;;;;;;;;5065572;28;20044;-86
2022/05/08 11:50:54;;;;;;;6.68;3.17;;;;;;;;;;5074187;28;20387;-84
2022/05/08 11:53:52;;;;;;;5.28;3.13;;;;;;;;;;5045210;28;20053;-84
2022/05/08 11:56:39;;;;;;;5.15;2.78;;;;;;;;;;5081007;28;20048;-86
2022/05/08 11:59:24;;;;;;;7.03;3.10;;;;;;;;;;5051214;28;20040;-85
2022/05/08 12:02:10;;;;;;;4.75;2.80;;;;;;;;;;5073779;28;20044;-87
2022/05/08 12:04:57;;;;;;;8.27;3.05;;;;;;;;;;5073773;28;20037;-85
2022/05/08 12:07:44;;;;;;;7.55;2.67;;;;;;;;;;5073382;28;20045;-86
2022/05/08 12:10:37;;;;;;;9.85;3.30;;;;;;;;;;5073688;28;20037;-86
2022/05/08 12:13:22;;;;;;;10.88;3.00;;;;;;;;;;5072911;28;20395;-86
2022/05/08 12:16:16;;;;;;;4.72;3.25;;;;;;;;;;5074060;28;20467;-86
2022/05/08 12:19:15;;;;;;;9.32;3.33;;;;;;;;;;5073754;28;20033;-86
2022/05/08 12:22:24;;;;;;;4.32;2.80;;;;;;;;;;5059045;28;20040;-85
2022/05/08 12:25:12;;;;;;;5.63;2.45;;;;;;;;;;5073892;28;20044;-87
2022/05/08 12:27:57;;;;;;;4.35;2.50;;;;;;;;;;5080164;28;20048;-87
2022/05/08 12:30:42;;;;;;;5.72;3.05;;;;;;;;;;5065832;28;20053;-87
2022/05/08 12:33:28;;;;;;;3.25;2.65;;;;;;;;;;5075082;28;20052;-87
2022/05/08 12:36:14;;;;;;;3.42;2.22;;;;;;;;;;5073814;28;20040;-85
2022/05/08 12:38:59;;;;;;;4.35;2.97;;;;;;;;;;5065137;28;20037;-85
2022/05/08 12:41:44;;;;;;;4.18;3.10;;;;;;;;;;5059734;28;20048;-85
2022/05/08 12:44:30;;;;;;;5.22;2.85;;;;;;;;;;5084348;28;20475;-86
2022/05/08 12:47:15;;;;;;;4.75;3.00;;;;;;;;;;5062293;28;20040;-85
2022/05/08 12:50:00;;;;;;;3.63;2.60;;;;;;;;;;5077017;28;20048;-84
2022/05/08 12:52:50;;;;;;;5.80;3.15;;;;;;;;;;5077178;28;20040;-85
2022/05/08 12:55:35;;;;;;;5.53;3.20;;;;;;;;;;5054488;28;20036;-83
2022/05/08 13:01:24;;;;;;;7.43;3.30;;;;;;;;;;5069357;28;20040;-84
2022/05/08 13:04:09;;;;;;;5.82;2.75;;;;;;;;;;5076651;28;20044;-85
2022/05/08 13:06:55;;;;;;;8.35;3.08;;;;;;;;;;5084034;28;20387;-86
2022/05/08 13:09:42;;;;;;;7.97;3.10;;;;;;;;;;5084278;28;20045;-85
2022/05/08 13:12:27;;;;;;;9.90;3.13;;;;;;;;;;5076918;28;20058;-84
2022/05/08 13:15:17;;;;;;;7.20;3.17;;;;;;;;;;5077048;28;20048;-85
2022/05/08 13:18:02;;;;;;;3.20;2.13;;;;;;;;;;5083338;28;20044;-85
2022/05/08 13:20:48;;;;;;;5.40;2.97;;;;;;;;;;5087633;28;20048;-87
2022/05/08 13:23:34;;;;;;;8.32;2.97;;;;;;;;;;5089690;28;20056;-84
2022/05/08 13:26:20;;;;;;;6.00;2.70;;;;;;;;;;5090205;28;20434;-86
2022/05/08 13:29:05;;;;;;;5.22;3.03;;;;;;;;;;5083270;28;20052;-87
2022/05/08 13:31:51;;;;;;;3.25;2.17;;;;;;;;;;5082120;28;20048;-87
2022/05/08 13:34:37;;;;;;;9.43;2.75;;;;;;;;;;5082817;28;20037;-85
2022/05/08 13:37:22;;;;;;;8.82;2.90;;;;;;;;;;5083842;28;20052;-85
2022/05/08 13:40:09;;;;;;;8.55;3.00;;;;;;;;;;5076805;28;20056;-85
2022/05/08 13:42:57;;;;;;;4.10;2.90;;;;;;;;;;5083541;28;20048;-87
2022/05/08 13:45:46;;;;;;;9.95;2.85;;;;;;;;;;5047414;28;20052;-87
2022/05/08 13:48:36;;;;;;;5.82;2.50;;;;;;;;;;5083555;28;20044;-86
2022/05/08 13:51:21;;;;;;;6.05;3.10;;;;;;;;;;5076035;28;20044;-86
2022/05/08 13:54:08;;;;;;;6.20;3.00;;;;;;;;;;5060433;28;20045;-86
2022/05/08 13:56:58;;;;;;;5.95;2.72;;;;;;;;;;5075974;28;20041;-85
2022/05/08 13:59:44;;;;;;;7.78;2.30;;;;;;;;;;5075589;28;20045;-85
2022/05/08 14:02:30;;;;;;;8.38;2.67;;;;;;;;;;5053525;28;20040;-85
2022/05/08 14:05:15;;;;;;;4.82;2.80;;;;;;;;;;5075199;28;20040;-85
2022/05/08 14:08:01;;;;;;;8.35;3.00;;;;;;;;;;5075767;28;20495;-85
2022/05/08 14:10:47;;;;;;;4.53;2.60;;;;;;;;;;5052026;28;20040;-85
2022/05/08 14:13:34;;;;;;;7.03;2.78;;;;;;;;;;5073219;28;20478;-84
2022/05/08 14:16:19;;;;;;;5.45;2.50;;;;;;;;;;5065272;28;20048;-86
2022/05/08 14:19:04;;;;;;;4.82;2.60;;;;;;;;;;5063706;28;20044;-85
2022/05/08 14:21:50;;;;;;;6.35;2.40;;;;;;;;;;5071735;28;20044;-85
2022/05/08 14:24:37;;;;;;;4.47;2.65;;;;;;;;;;5078870;28;20056;-86
2022/05/08 14:27:25;;;;;;;6.28;2.70;;;;;;;;;;5062598;28;20041;-85
2022/05/08 14:30:10;;;;;;;8.05;2.67;;;;;;;;;;5071744;28;20395;-84
2022/05/08 14:36:04;;;;;;;5.15;3.00;;;;;;;;;;5073572;28;20399;-85
2022/05/08 14:38:52;;;;;;;5.70;2.72;;;;;;;;;;5078844;28;20052;-86
2022/05/08 14:41:37;;;;;;;7.13;2.78;;;;;;;;;;5058000;28;20036;-86
2022/05/08 14:44:22;;;;;;;6.70;2.75;;;;;;;;;;5073408;28;20304;-87
2022/05/08 14:47:08;;;;;;;7.47;2.65;;;;;;;;;;5058260;28;20044;-86
2022/05/08 14:49:54;;;;;;;7.35;2.50;;;;;;;;;;5080164;28;20044;-86
2022/05/08 14:52:49;;;;;;;4.60;2.25;;;;;;;;;;5070892;28;20040;-86
2022/05/08 14:55:37;;;;;;;;;;;;;;;;;;5075099;28;20044;-86
2022/05/08 14:58:23;;;;;;;5.70;2.67;;;;;;;;;;5074825;28;19912;-85
2022/05/08 15:01:08;;;;;;;5.65;2.70;;;;;;;;;;5066181;28;20044;-84
2022/05/08 15:03:53;;;;;;;6.57;2.63;;;;;;;;;;5065988;28;20056;-84
2022/05/08 15:06:39;;;;;;;5.55;2.70;;;;;;;;;;5073926;28;20041;-85
2022/05/08 15:09:28;;;;;;;8.38;2.65;;;;;;;;;;5074400;28;20041;-84
2022/05/08 15:12:19;;;;;;;2.63;2.30;;;;;;;;;;5074614;28;20052;-85
2022/05/08 15:15:04;;;;;;;4.03;2.40;;;;;;;;;;5059205;28;20052;-85
2022/05/08 15:20:55;;;;;;;4.15;2.55;;;;;;;;;;5066091;28;20048;-86
2022/05/08 15:24:04;;;;;;;7.28;2.53;;;;;;;;;;5074078;28;20036;-85
2022/05/08 15:26:52;;;;;;;5.13;2.40;;;;;;;;;;5065752;28;20036;-87
2022/05/08 15:29:38;;;;;;;4.38;2.78;;;;;;;;;;5074093;28;20471;-85
2022/05/08 15:32:23;;;;;;;4.78;2.65;;;;;;;;;;5074200;28;20422;-85
2022/05/08 15:35:11;;;;;;;6.72;2.97;;;;;;;;;;5066267;28;20048;-86
2022/05/08 15:37:58;;;;;;;3.97;2.55;;;;;;;;;;5073762;28;20044;-85
2022/05/08 15:40:45;;;;;;;4.60;2.63;;;;;;;;;;5074512;28;20048;-86
2022/05/08 15:43:33;;;;;;;7.32;2.72;;;;;;;;;;5074085;28;20475;-85
2022/05/08 15:46:18;;;;;;;3.70;2.53;;;;;;;;;;5051857;28;20040;-84
2022/05/08 15:49:04;;;;;;;7.63;2.92;;;;;;;;;;5066356;28;20044;-83
2022/05/08 15:51:51;;;;;;;11.32;2.55;;;;;;;;;;5074001;28;20392;-82
2022/05/08 15:54:52;;;;;;;3.45;2.22;;;;;;;;;;5081647;28;20036;-85
2022/05/08 15:57:40;;;;;;;6.55;2.42;;;;;;;;;;5054566;28;20048;-81
2022/05/08 16:00:30;;;;;;;9.30;2.85;;;;;;;;;;5074627;28;20044;-82
2022/05/08 16:03:16;;;;;;;4.78;2.78;;;;;;;;;;5053617;28;20053;-81
2022/05/08 16:06:04;;;;;;;6.72;2.60;;;;;;;;;;5079940;28;20037;-79
2022/05/08 16:08:49;;;;;;;5.10;2.60;;;;;;;;;;5074068;28;20044;-80
2022/05/08 16:11:34;;;;;;;5.93;2.55;;;;;;;;;;5073509;28;20467;-82
2022/05/08 16:23:33;;;;;;;7.03;2.80;;;;;;;;;;5057381;28;20041;-82
2022/05/08 16:26:21;;;;;;;4.70;2.50;;;;;;;;;;5057168;28;20037;-82
2022/05/08 16:29:06;;;;;;;10.20;2.85;;;;;;;;;;5056189;28;20435;-84
2022/05/08 16:31:53;;;;;;;7.05;2.58;;;;;;;;;;5056574;28;20052;-83
2022/05/08 16:34:39;;;;;;;6.88;3.15;;;;;;;;;;5064947;28;20053;-82
2022/05/08 16:37:25;;;;;;;6.85;3.15;;;;;;;;;;5066335;28;21245;-82
2022/05/08 16:40:12;;;;;;;7.60;2.50;;;;;;;;;;5041186;28;20032;-83
2022/05/08 16:43:00;;;;;;;4.47;2.50;;;;;;;;;;5054735;28;20036;-83
2022/05/08 16:45:47;;;;;;;5.13;2.80;;;;;;;;;;5044712;28;20049;-82
2022/05/08 16:48:32;;;;;;;4.85;2.40;;;;;;;;;;5057862;28;20041;-80
2022/05/08 16:51:18;;;;;;;7.30;2.50;;;;;;;;;;5062772;28;20040;-82
2022/05/08 16:54:03;;;;;;;6.70;2.60;;;;;;;;;;5049117;28;20053;-80
2022/05/08 16:56:50;;;;;;;7.82;2.40;;;;;;;;;;5049679;28;20049;-82
2022/05/08 16:59:35;;;;;;;6.63;2.40;;;;;;;;;;5048136;28;20053;-81
2022/05/08 17:02:21;;;;;;;5.47;2.58;;;;;;;;;;5045986;28;20457;-82
2022/05/08 17:05:07;;;;;;;5.38;2.63;;;;;;;;;;5047646;28;20399;-82
2022/05/08 17:07:53;;;;;;;7.43;2.38;;;;;;;;;;5042056;28;20046;-82
2022/05/08 17:10:38;;;;;;;5.53;2.55;;;;;;;;;;5050574;28;20046;-82
2022/05/08 17:13:24;;;;;;;10.25;3.00;;;;;;;;;;5057117;28;20040;-82
2022/05/08 17:16:10;;;;;;;5.30;2.67;;;;;;;;;;5072916;28;20479;-80
2022/05/08 17:18:55;;;;;;;10.30;2.70;;;;;;;;;;5071837;28;20049;-82
2022/05/08 17:21:41;;;;;;;6.10;3.10;;;;;;;;;;5061495;28;20057;-82
2022/05/08 17:24:26;;;;;;;14.45;3.22;;;;;;;;;;5062502;28;20048;-81
2022/05/08 17:30:15;;;;;;;4.75;2.60;;;;;;;;;;5063581;28;20045;-83